Time;durP1;ratioP1;P1;durP2;ratioP2;P2;SDS_P1;SDS_P2;PMS_P1;PMS_P2;Temp;Humidity;BMP_temperature;BMP_pressure;BME280_temperature;BME280_humidity;BME280_pressure;Samples;Min_cycle;Max_cycle;Signal;HPM_P1;HPM_P2
2023/09/24 00:00:39;;;;;;;3.63;1.90;;;;;;;22.62;100.00;101086.41;2080598;28;20314;-69
2023/09/24 00:01:40;;;;;;;3.67;1.67;;;;;;;22.59;100.00;101083.81;2081237;28;20276;-69
2023/09/24 00:02:40;;;;;;;3.90;2.03;;;;;;;22.53;100.00;101074.53;2081202;28;20189;-69
2023/09/24 00:03:41;;;;;;;5.07;2.00;;;;;;;22.56;100.00;101088.44;2080540;28;20212;-69
2023/09/24 00:04:42;;;;;;;3.43;1.83;;;;;;;22.51;100.00;101079.94;2081430;28;20666;-69
2023/09/24 00:05:42;;;;;;;4.53;2.27;;;;;;;22.49;100.00;101076.81;2080927;28;20260;-69
2023/09/24 00:06:44;;;;;;;3.50;1.87;;;;;;;22.58;100.00;101085.91;2081034;28;20173;-69
2023/09/24 00:07:44;;;;;;;4.53;2.23;;;;;;;22.57;100.00;101089.22;2081560;28;20762;-69
2023/09/24 00:08:45;;;;;;;3.97;1.97;;;;;;;22.54;100.00;101085.34;2079444;28;20567;-69
2023/09/24 00:09:46;;;;;;;4.53;1.67;;;;;;;22.56;100.00;101084.84;2080010;28;20181;-69
2023/09/24 00:10:52;;;;;;;3.57;1.90;;;;;;;22.54;100.00;101084.56;2085523;28;20224;-69
2023/09/24 00:11:52;;;;;;;8.47;2.17;;;;;;;22.18;100.00;101034.47;2082897;28;20564;-69
2023/09/24 00:12:53;;;;;;;4.67;1.80;;;;;;;22.55;100.00;101088.94;2080387;28;20200;-69
2023/09/24 00:13:54;;;;;;;4.10;2.00;;;;;;;22.53;100.00;101085.84;2079122;28;20188;-69
2023/09/24 00:14:56;;;;;;;3.57;1.87;;;;;;;22.51;100.00;101092.00;2073879;28;20249;-69
2023/09/24 00:16:04;;;;;;;2.60;1.90;;;;;;;22.26;100.00;101053.28;2081283;28;20256;-69
2023/09/24 00:17:07;;;;;;;5.10;2.20;;;;;;;22.50;100.00;101089.66;2073123;28;20170;-69
2023/09/24 00:18:08;;;;;;;3.63;2.30;;;;;;;22.49;100.00;101090.94;2072188;28;20185;-69
2023/09/24 00:19:08;;;;;;;5.03;2.10;;;;;;;22.48;100.00;101093.00;2080433;28;20737;-69
2023/09/24 00:20:09;;;;;;;3.17;2.00;;;;;;;22.45;100.00;101085.53;2080866;28;20232;-69
2023/09/24 00:21:10;;;;;;;4.53;2.00;;;;;;;22.48;100.00;101097.88;2081108;28;20214;-69
2023/09/24 00:22:12;;;;;;;5.40;2.10;;;;;;;22.43;100.00;101082.44;2080931;28;20200;-69
2023/09/24 00:23:14;;;;;;;4.73;2.20;;;;;;;22.46;100.00;101091.97;2081235;28;20184;-69
2023/09/24 00:24:16;;;;;;;6.13;2.47;;;;;;;22.44;100.00;101092.47;2078804;28;20275;-69
2023/09/24 00:25:17;;;;;;;8.17;2.37;;;;;;;22.44;100.00;101088.81;2073798;28;20661;-69
2023/09/24 00:26:18;;;;;;;4.70;2.33;;;;;;;22.42;100.00;101086.50;2081266;28;20192;-69
2023/09/24 00:27:19;;;;;;;5.20;2.30;;;;;;;22.41;100.00;101093.44;2073224;28;20220;-69
2023/09/24 00:28:19;;;;;;;5.27;2.67;;;;;;;22.40;100.00;101096.75;2079555;28;20216;-69
2023/09/24 00:29:21;;;;;;;4.47;1.90;;;;;;;22.39;100.00;101093.16;2080873;28;20196;-69
2023/09/24 00:30:22;;;;;;;3.67;1.97;;;;;;;21.93;100.00;101027.63;2078612;28;20189;-69
2023/09/24 00:31:23;;;;;;;4.80;2.17;;;;;;;22.37;100.00;101098.53;2076250;28;20221;-69
2023/09/24 00:32:24;;;;;;;4.53;2.37;;;;;;;22.35;100.00;101083.38;2080522;28;21413;-69
2023/09/24 00:33:25;;;;;;;3.67;2.20;;;;;;;22.34;100.00;101099.56;2076319;28;20193;-69
2023/09/24 00:34:25;;;;;;;6.47;2.77;;;;;;;22.33;100.00;101088.75;2077229;28;20189;-69
2023/09/24 00:35:27;;;;;;;4.33;2.50;;;;;;;22.32;100.00;101087.22;2080741;28;20651;-69
2023/09/24 00:36:27;;;;;;;4.30;2.43;;;;;;;21.84;100.00;101018.56;2081116;28;20203;-69
2023/09/24 00:37:28;;;;;;;3.23;2.20;;;;;;;22.26;100.00;101092.81;2080621;28;20276;-69
2023/09/24 00:38:28;;;;;;;4.97;2.27;;;;;;;22.25;100.00;101085.63;2080754;28;20197;-69
2023/09/24 00:39:29;;;;;;;4.27;2.40;;;;;;;22.23;100.00;101102.28;2080765;28;20219;-69
2023/09/24 00:40:29;;;;;;;3.97;1.90;;;;;;;22.21;100.00;101090.72;2080548;28;20287;-69
2023/09/24 00:41:30;;;;;;;4.67;2.20;;;;;;;22.18;100.00;101088.13;2078037;28;20251;-69
2023/09/24 00:42:32;;;;;;;5.23;2.30;;;;;;;21.97;100.00;101081.00;2079831;28;20177;-69
2023/09/24 00:43:34;;;;;;;6.53;2.63;;;;;;;21.82;100.00;101054.97;2077086;28;20182;-69
2023/09/24 00:44:36;;;;;;;4.17;2.47;;;;;;;22.11;100.00;101099.88;2080847;28;20177;-69
2023/09/24 00:45:37;;;;;;;4.43;2.00;;;;;;;22.07;100.00;101108.56;2080830;28;20177;-69
2023/09/24 00:46:38;;;;;;;6.37;2.83;;;;;;;22.04;100.00;101115.22;2080083;28;20193;-69
2023/09/24 00:47:41;;;;;;;4.40;2.30;;;;;;;22.03;100.00;101112.88;2080961;28;20337;-69
2023/09/24 00:48:44;;;;;;;4.23;2.17;;;;;;;22.03;100.00;101107.22;2080913;28;20276;-69
2023/09/24 00:49:45;;;;;;;4.27;2.30;;;;;;;21.54;100.00;101031.34;2080843;28;20736;-69
2023/09/24 00:50:46;;;;;;;3.43;2.20;;;;;;;21.96;100.00;101102.06;2080722;28;20177;-69
2023/09/24 00:51:48;;;;;;;2.70;2.20;;;;;;;22.03;100.00;101099.56;2080425;28;20193;-69
2023/09/24 00:52:50;;;;;;;4.30;2.40;;;;;;;22.04;100.00;101108.78;2080999;28;20172;-69
2023/09/24 00:53:53;;;;;;;5.83;2.63;;;;;;;22.03;100.00;101102.38;2080335;28;20448;-69
2023/09/24 00:54:53;;;;;;;4.87;2.30;;;;;;;22.04;100.00;101092.63;2081332;28;20172;-69
2023/09/24 00:55:56;;;;;;;5.00;2.37;;;;;;;21.95;100.00;101077.94;2080688;28;20224;-69
2023/09/24 00:56:58;;;;;;;4.70;2.30;;;;;;;22.05;100.00;101096.25;2080734;28;20293;-69
2023/09/24 00:57:59;;;;;;;3.07;1.90;;;;;;;21.97;100.00;101083.84;2080503;28;20282;-69
2023/09/24 00:58:59;;;;;;;5.80;2.30;;;;;;;22.05;100.00;101093.41;2080843;28;20298;-69
2023/09/24 01:00:05;;;;;;;2.83;2.07;;;;;;;21.95;100.00;101083.56;2080493;28;20229;-69
2023/09/24 01:01:06;;;;;;;4.97;2.13;;;;;;;21.99;100.00;101086.94;2080322;28;20196;-69
2023/09/24 01:02:07;;;;;;;3.40;2.30;;;;;;;22.02;100.00;101095.19;2080416;28;20268;-69
2023/09/24 01:03:09;;;;;;;6.93;2.60;;;;;;;22.01;100.00;101092.84;2080815;28;20268;-69
2023/09/24 01:04:11;;;;;;;6.40;2.73;;;;;;;22.00;100.00;101086.44;2080693;28;20705;-69
2023/09/24 01:05:13;;;;;;;8.60;2.33;;;;;;;21.99;100.00;101086.94;2073173;28;20178;-69
2023/09/24 01:06:14;;;;;;;4.23;2.20;;;;;;;21.97;100.00;101092.31;2079648;28;20671;-69
2023/09/24 01:07:15;;;;;;;5.13;1.80;;;;;;;21.92;100.00;101085.34;2080846;28;20573;-69
2023/09/24 01:08:20;;;;;;;3.87;1.90;;;;;;;21.90;100.00;101087.88;2079646;28;20200;-69
2023/09/24 01:09:20;;;;;;;4.10;2.30;;;;;;;21.85;100.00;101085.03;2080449;28;20193;-69
2023/09/24 01:10:23;;;;;;;5.20;2.20;;;;;;;21.84;100.00;101087.06;2080499;28;20192;-69
2023/09/24 01:11:24;;;;;;;4.50;2.30;;;;;;;21.75;100.00;101069.53;2080796;28;20177;-69
2023/09/24 01:12:31;;;;;;;6.23;2.30;;;;;;;21.82;100.00;101086.78;2080367;28;20173;-69
2023/09/24 01:13:42;;;;;;;4.97;2.10;;;;;;;21.79;100.00;101087.78;2080729;28;20702;-69
2023/09/24 01:14:43;;;;;;;5.60;2.20;;;;;;;21.77;100.00;101098.00;2080468;28;20196;-69
2023/09/24 01:15:44;;;;;;;3.87;2.50;;;;;;;21.38;100.00;101029.13;2080045;28;20204;-69
2023/09/24 01:16:45;;;;;;;3.93;2.50;;;;;;;21.74;100.00;101082.84;2081096;28;20268;-69
2023/09/24 01:17:45;;;;;;;6.63;2.27;;;;;;;21.68;100.00;101078.41;2080435;28;20835;-69
2023/09/24 01:18:45;;;;;;;5.20;2.50;;;;;;;21.73;100.00;101083.34;2080227;28;20196;-69
2023/09/24 01:19:46;;;;;;;4.53;1.97;;;;;;;21.73;100.00;101089.00;2076060;28;20656;-69
2023/09/24 01:20:47;;;;;;;4.37;2.07;;;;;;;21.68;100.00;101076.38;2075457;28;20197;-69
2023/09/24 01:21:50;;;;;;;4.30;2.20;;;;;;;21.70;100.00;101090.75;2074928;28;20229;-69
2023/09/24 01:22:51;;;;;;;4.23;2.30;;;;;;;21.71;100.00;101080.25;2080752;28;20185;-69
2023/09/24 01:23:51;;;;;;;3.83;2.20;;;;;;;21.70;100.00;101090.75;2080194;28;20193;-69
2023/09/24 01:24:52;;;;;;;4.07;2.10;;;;;;;21.68;100.00;101084.84;2081137;28;20235;-69
2023/09/24 01:25:52;;;;;;;6.67;2.40;;;;;;;21.66;100.00;101086.59;2080644;28;20267;-69
2023/09/24 01:26:53;;;;;;;5.43;2.13;;;;;;;21.64;100.00;101084.25;2079938;28;20249;-69
2023/09/24 01:27:54;;;;;;;2.97;2.27;;;;;;;21.64;100.00;101083.50;2080390;28;20216;-69
2023/09/24 01:28:55;;;;;;;6.07;2.37;;;;;;;21.63;100.00;101076.28;2076165;28;20222;-69
2023/09/24 01:29:56;;;;;;;6.77;2.40;;;;;;;21.62;100.00;101074.75;2079502;28;20181;-69
2023/09/24 01:30:58;;;;;;;5.93;2.60;;;;;;;21.61;100.00;101074.00;2080518;28;20246;-69
2023/09/24 01:31:58;;;;;;;4.27;2.30;;;;;;;21.60;100.00;101086.53;2080207;28;20741;-69
2023/09/24 01:32:59;;;;;;;4.37;3.23;;;;;;;21.60;100.00;101080.88;2074825;28;20609;-69
2023/09/24 01:34:04;;;;;;;4.60;2.20;;;;;;;21.53;100.00;101078.50;2079193;28;20629;-69
2023/09/24 01:35:06;;;;;;;6.50;2.37;;;;;;;21.56;100.00;101091.63;2078003;28;20199;-69
2023/09/24 01:36:10;;;;;;;4.63;2.20;;;;;;;21.56;100.00;101099.31;2078101;28;20266;-69
2023/09/24 01:37:11;;;;;;;7.57;2.50;;;;;;;21.55;100.00;101101.34;2080708;28;20311;-69
2023/09/24 01:38:12;;;;;;;5.37;2.40;;;;;;;21.55;100.00;101103.41;2079723;28;20354;-69
2023/09/24 01:39:17;;;;;;;5.80;2.03;;;;;;;21.55;100.00;101100.56;2079751;28;20193;-69
2023/09/24 01:40:19;;;;;;;6.17;2.17;;;;;;;21.48;100.00;101098.97;2079314;28;20200;-69
2023/09/24 01:41:20;;;;;;;4.10;2.37;;;;;;;21.53;100.00;101109.53;2080640;28;20185;-69
2023/09/24 01:42:20;;;;;;;4.93;2.50;;;;;;;21.44;100.00;101092.75;2080059;28;20176;-69
2023/09/24 01:43:21;;;;;;;5.17;2.30;;;;;;;21.52;100.00;101107.97;2080865;28;20184;-69
2023/09/24 01:44:21;;;;;;;5.27;2.50;;;;;;;21.51;100.00;101102.84;2079674;28;20193;-69
2023/09/24 01:45:22;;;;;;;6.87;2.17;;;;;;;21.50;100.00;101102.06;2080572;28;20220;-69
2023/09/24 01:46:22;;;;;;;3.57;2.30;;;;;;;21.52;100.00;101101.56;2076718;28;20271;-69
2023/09/24 01:47:22;;;;;;;3.40;2.23;;;;;;;21.53;100.00;101109.53;2076601;28;20185;-69
2023/09/24 01:48:24;;;;;;;4.37;2.77;;;;;;;21.52;100.00;101121.31;2079682;28;20587;-69
2023/09/24 01:49:24;;;;;;;4.20;2.33;;;;;;;21.52;100.00;101119.25;2080692;28;20180;-69
2023/09/24 01:50:28;;;;;;;3.37;2.20;;;;;;;21.29;100.00;101099.78;2079871;28;20181;-69
2023/09/24 01:51:31;;;;;;;5.17;2.40;;;;;;;21.51;100.00;101140.28;2080706;28;20181;-69
2023/09/24 01:52:31;;;;;;;5.30;2.47;;;;;;;21.30;100.00;101113.38;2077601;28;20571;-69
2023/09/24 01:53:32;;;;;;;2.67;1.93;;;;;;;21.49;100.00;101148.44;2080498;28;20223;-69
2023/09/24 01:54:33;;;;;;;2.73;1.93;;;;;;;21.38;100.00;101148.31;2080265;28;20283;-69
2023/09/24 01:55:36;;;;;;;5.57;2.33;;;;;;;21.42;100.00;101165.00;2080232;28;20193;-69
2023/09/24 01:56:36;;;;;;;5.50;2.40;;;;;;;21.33;100.00;101151.09;2079958;28;20193;-69
2023/09/24 01:57:37;;;;;;;4.37;2.10;;;;;;;21.39;100.00;101174.47;2079399;28;20250;-69
2023/09/24 01:58:38;;;;;;;2.90;2.27;;;;;;;21.35;100.00;101171.09;2079698;28;20256;-69
2023/09/24 01:59:39;;;;;;;4.37;2.00;;;;;;;21.33;100.00;101168.00;2080447;28;20189;-69
2023/09/24 02:00:39;;;;;;;4.30;2.00;;;;;;;21.30;100.00;101175.41;2080594;28;20181;-69
2023/09/24 02:01:40;;;;;;;4.33;2.10;;;;;;;21.26;100.00;101172.00;2077951;28;20597;-69
2023/09/24 02:02:41;;;;;;;4.30;1.87;;;;;;;21.26;100.00;101176.84;2079095;28;20177;-69
2023/09/24 02:03:41;;;;;;;3.63;2.13;;;;;;;21.25;100.00;101183.75;2079654;28;20200;-69
2023/09/24 02:04:42;;;;;;;5.43;2.50;;;;;;;21.24;100.00;101182.22;2079467;28;21014;-69
2023/09/24 02:05:42;;;;;;;3.63;2.10;;;;;;;21.21;100.00;101183.19;2080362;28;20276;-69
2023/09/24 02:06:43;;;;;;;4.30;2.30;;;;;;;21.25;100.00;101192.22;2078698;28;20549;-69
2023/09/24 02:07:43;;;;;;;3.83;1.97;;;;;;;21.25;100.00;101197.84;2088087;28;20212;-69
2023/09/24 02:08:43;;;;;;;7.37;2.37;;;;;;;21.25;100.00;101198.66;2088195;28;20203;-69
2023/09/24 02:09:44;;;;;;;8.70;2.43;;;;;;;20.98;100.00;101150.34;2080388;28;20731;-69
2023/09/24 02:10:45;;;;;;;4.60;2.20;;;;;;;21.26;100.00;101205.03;2080186;28;20243;-69
2023/09/24 02:11:46;;;;;;;7.37;2.17;;;;;;;21.26;100.00;101197.38;2079801;28;20230;-69
2023/09/24 02:12:46;;;;;;;6.83;1.90;;;;;;;21.26;100.00;101193.78;2079863;28;20446;-69
2023/09/24 02:13:47;;;;;;;2.53;1.80;;;;;;;21.27;100.00;101198.91;2080144;28;20200;-69
2023/09/24 02:14:48;;;;;;;3.83;2.20;;;;;;;21.23;100.00;101195.53;2080152;28;20177;-69
2023/09/24 02:15:48;;;;;;;3.07;1.67;;;;;;;21.23;100.00;101197.59;2080116;28;20270;-69
2023/09/24 02:16:50;;;;;;;5.30;2.33;;;;;;;21.23;100.00;101195.53;2080604;28;20181;-69
2023/09/24 02:17:51;;;;;;;3.87;1.80;;;;;;;21.05;100.00;101166.84;2080357;28;20177;-69
2023/09/24 02:18:51;;;;;;;4.90;1.90;;;;;;;21.25;100.00;101187.38;2080152;28;20283;-69
2023/09/24 02:19:55;;;;;;;4.63;1.73;;;;;;;21.12;100.00;101175.66;2080266;28;20200;-70
2023/09/24 02:20:58;;;;;;;2.97;1.37;;;;;;;21.28;100.00;101188.44;2079949;28;20231;-69
2023/09/24 02:21:58;;;;;;;3.83;1.80;;;;;;;21.28;100.00;101183.56;2076478;28;20447;-69
2023/09/24 02:23:00;;;;;;;3.63;1.80;;;;;;;21.02;100.00;101148.09;2079954;28;20196;-69
2023/09/24 02:24:01;;;;;;;3.57;1.80;;;;;;;21.33;100.00;101193.38;2070666;28;20190;-69
2023/09/24 02:25:02;;;;;;;4.20;1.50;;;;;;;21.34;100.00;101198.50;2079377;28;20466;-69
2023/09/24 02:26:02;;;;;;;5.00;1.97;;;;;;;21.36;100.00;101198.78;2080395;28;20209;-69
2023/09/24 02:27:04;;;;;;;2.47;1.10;;;;;;;21.33;100.00;101207.47;2080237;28;20243;-69
2023/09/24 02:28:05;;;;;;;5.83;1.70;;;;;;;21.33;100.00;101208.22;2079373;28;20307;-69
2023/09/24 02:29:05;;;;;;;3.37;1.70;;;;;;;21.33;100.00;101210.28;2080272;28;20428;-69
2023/09/24 02:30:07;;;;;;;4.40;1.63;;;;;;;21.31;100.00;101202.31;2080219;28;20530;-69
2023/09/24 02:31:12;;;;;;;3.17;1.20;;;;;;;21.32;100.00;101201.03;2080146;28;20189;-69
2023/09/24 02:32:13;;;;;;;2.80;1.47;;;;;;;21.31;100.00;101202.31;2079743;28;20487;-69
2023/09/24 02:33:13;;;;;;;2.07;1.27;;;;;;;21.31;100.00;101202.31;2079968;28;20426;-69
2023/09/24 02:34:14;;;;;;;2.93;1.53;;;;;;;21.31;100.00;101195.88;2080193;28;20183;-69
2023/09/24 02:35:16;;;;;;;3.80;1.63;;;;;;;21.29;100.00;101196.38;2080895;28;20173;-69
2023/09/24 02:36:16;;;;;;;6.00;1.53;;;;;;;21.33;100.00;101204.66;2079944;28;20215;-69
2023/09/24 02:37:17;;;;;;;5.10;1.57;;;;;;;21.33;100.00;101211.03;2080232;28;20538;-69
2023/09/24 02:38:18;;;;;;;5.60;1.40;;;;;;;21.10;100.00;101177.41;2079211;28;20177;-69
2023/09/24 02:39:22;;;;;;;3.50;1.43;;;;;;;21.35;100.00;101213.38;2079064;28;20213;-69
2023/09/24 02:40:30;;;;;;;2.43;1.30;;;;;;;21.30;100.00;101214.06;2076656;28;20177;-69
2023/09/24 02:41:31;;;;;;;1.87;1.33;;;;;;;21.28;100.00;101211.75;2074480;28;20443;-69
2023/09/24 02:42:32;;;;;;;3.07;1.40;;;;;;;21.32;100.00;101211.53;2080131;28;20412;-70
2023/09/24 02:43:32;;;;;;;4.77;1.43;;;;;;;21.30;100.00;101209.22;2075500;28;20440;-69
2023/09/24 02:44:34;;;;;;;2.63;1.33;;;;;;;20.93;100.00;101160.25;2080608;28;20188;-69
2023/09/24 02:45:34;;;;;;;2.30;1.20;;;;;;;21.28;100.00;101213.81;2080199;28;20193;-69
2023/09/24 02:46:35;;;;;;;2.77;1.60;;;;;;;21.32;100.00;101215.13;2080052;28;20435;-69
2023/09/24 02:47:36;;;;;;;5.57;1.37;;;;;;;21.32;100.00;101215.13;2080153;28;20192;-69
2023/09/24 02:48:38;;;;;;;3.00;1.60;;;;;;;21.36;100.00;101217.75;2080064;28;20185;-69
2023/09/24 02:49:39;;;;;;;2.40;1.33;;;;;;;21.35;100.00;101219.78;2080088;28;20458;-69
2023/09/24 02:50:39;;;;;;;2.50;1.60;;;;;;;21.00;100.00;101161.91;2079658;28;20450;-69
2023/09/24 02:51:40;;;;;;;2.90;1.70;;;;;;;21.33;100.00;101204.66;2078867;28;20231;-69
2023/09/24 02:52:48;;;;;;;2.43;1.00;;;;;;;21.32;100.00;101205.88;2072070;28;20181;-69
2023/09/24 02:53:50;;;;;;;2.53;1.50;;;;;;;21.32;100.00;101197.44;2079810;28;20204;-70
2023/09/24 02:54:50;;;;;;;2.43;1.50;;;;;;;21.30;100.00;101205.63;2072549;28;20477;-69
2023/09/24 02:55:51;;;;;;;2.47;1.40;;;;;;;21.31;100.00;101201.53;2078143;28;20513;-70
2023/09/24 02:56:52;;;;;;;5.10;1.50;;;;;;;21.30;100.00;101208.44;2080411;28;20272;-69
2023/09/24 02:57:53;;;;;;;2.97;1.30;;;;;;;21.30;100.00;101208.44;2080201;28;20185;-69
2023/09/24 02:58:54;;;;;;;5.83;1.47;;;;;;;21.29;100.00;101196.38;2079748;28;20451;-70
2023/09/24 02:59:54;;;;;;;3.37;1.30;;;;;;;21.32;100.00;101194.63;2079813;28;20489;-70
2023/09/24 03:00:54;;;;;;;2.20;1.40;;;;;;;21.33;100.00;101196.19;2079816;28;20673;-69
2023/09/24 03:01:56;;;;;;;2.07;1.30;;;;;;;21.31;100.00;101191.03;2072009;28;20225;-69
2023/09/24 03:03:00;;;;;;;3.73;1.60;;;;;;;21.32;100.00;101189.75;2080742;28;20181;-69
2023/09/24 03:04:01;;;;;;;3.90;1.70;;;;;;;21.34;100.00;101192.09;2079381;28;20455;-69
2023/09/24 03:05:03;;;;;;;3.30;1.50;;;;;;;21.33;100.00;101184.91;2079675;28;20451;-69
2023/09/24 03:06:04;;;;;;;3.37;1.57;;;;;;;21.30;100.00;101189.50;2079949;28;20200;-69
2023/09/24 03:07:10;;;;;;;3.77;1.70;;;;;;;21.33;100.00;101196.19;2087746;28;20442;-69
2023/09/24 03:08:15;;;;;;;7.73;1.40;;;;;;;21.34;100.00;101195.66;2086048;28;20615;-69
2023/09/24 03:09:16;;;;;;;3.43;1.30;;;;;;;21.36;100.00;101195.19;2079070;28;20435;-69
2023/09/24 03:10:18;;;;;;;3.37;1.60;;;;;;;21.36;100.00;101198.78;2080705;28;20944;-69
2023/09/24 03:11:19;;;;;;;3.43;1.50;;;;;;;21.38;100.00;101201.09;2080207;28;20430;-69
2023/09/24 03:12:19;;;;;;;3.20;1.10;;;;;;;21.37;100.00;101197.53;2073448;28;20428;-69
2023/09/24 03:13:21;;;;;;;3.90;1.53;;;;;;;21.37;100.00;101197.53;2082154;28;20556;-69
2023/09/24 03:14:21;;;;;;;5.20;1.40;;;;;;;21.39;100.00;101197.03;2081689;28;20242;-69
2023/09/24 03:15:23;;;;;;;4.47;1.10;;;;;;;21.39;100.00;101194.97;2081639;28;21019;-69
2023/09/24 03:16:26;;;;;;;3.27;1.50;;;;;;;21.41;100.00;101184.00;2081145;28;20196;-69
2023/09/24 03:17:26;;;;;;;3.60;1.40;;;;;;;21.38;100.00;101182.16;2081079;28;20192;-69
2023/09/24 03:18:27;;;;;;;2.63;1.43;;;;;;;21.41;100.00;101186.03;2080606;28;20866;-69
2023/09/24 03:19:28;;;;;;;4.57;1.40;;;;;;;21.41;100.00;101180.38;2081603;28;20276;-69
2023/09/24 03:20:29;;;;;;;5.03;1.30;;;;;;;21.36;100.00;101169.81;2081090;28;20173;-69
2023/09/24 03:21:29;;;;;;;3.90;1.40;;;;;;;21.33;100.00;101168.75;2081508;28;20513;-69
2023/09/24 03:22:30;;;;;;;2.13;1.50;;;;;;;21.38;100.00;101165.22;2081890;28;20555;-69
2023/09/24 03:23:30;;;;;;;2.47;1.37;;;;;;;21.37;100.00;101163.69;2081229;28;20189;-69
2023/09/24 03:24:31;;;;;;;3.00;1.33;;;;;;;21.40;100.00;101170.38;2080173;28;20192;-69
2023/09/24 03:25:32;;;;;;;2.60;1.43;;;;;;;21.31;100.00;101174.13;2081417;28;20189;-69
2023/09/24 03:26:32;;;;;;;8.17;1.80;;;;;;;21.36;100.00;101170.59;2081469;28;20752;-69
2023/09/24 03:27:33;;;;;;;3.07;1.80;;;;;;;21.33;100.00;101179.28;2081231;28;20804;-69
2023/09/24 03:28:33;;;;;;;3.40;1.60;;;;;;;21.31;100.00;101184.59;2081209;28;20173;-69
2023/09/24 03:29:34;;;;;;;1.83;1.40;;;;;;;21.29;100.00;101189.97;2081976;28;20173;-69
2023/09/24 03:30:34;;;;;;;2.63;1.37;;;;;;;21.19;100.00;101177.28;2081011;28;20239;-69
2023/09/24 03:31:35;;;;;;;2.10;1.37;;;;;;;21.26;100.00;101197.38;2081839;28;20216;-68
2023/09/24 03:32:37;;;;;;;2.00;1.30;;;;;;;21.03;100.00;101163.75;2081196;28;20192;-68
2023/09/24 03:33:37;;;;;;;3.30;1.30;;;;;;;21.23;100.00;101197.59;2080829;28;20718;-69
2023/09/24 03:34:38;;;;;;;2.27;1.50;;;;;;;21.17;100.00;101194.69;2081280;28;20215;-68
2023/09/24 03:35:39;;;;;;;5.57;1.40;;;;;;;21.16;100.00;101203.63;2080513;28;20682;-69
2023/09/24 03:36:41;;;;;;;2.90;1.53;;;;;;;21.15;100.00;101208.50;2080430;28;20622;-69
2023/09/24 03:37:45;;;;;;;3.40;1.90;;;;;;;21.15;100.00;101216.97;2081167;28;20227;-69
2023/09/24 03:38:46;;;;;;;2.77;1.60;;;;;;;21.14;100.00;101223.06;2080203;28;20173;-69
2023/09/24 03:39:47;;;;;;;2.73;1.40;;;;;;;21.13;100.00;101227.16;2081215;28;20193;-69
2023/09/24 03:40:47;;;;;;;3.37;1.80;;;;;;;21.15;100.00;101231.03;2080877;28;20184;-69
2023/09/24 03:41:48;;;;;;;2.97;1.63;;;;;;;21.15;100.00;101233.88;2080507;28;20224;-69
2023/09/24 03:42:48;;;;;;;6.53;1.60;;;;;;;21.16;100.00;101232.59;2081410;28;20267;-69
2023/09/24 03:43:48;;;;;;;3.93;1.60;;;;;;;21.16;100.00;101232.59;2081320;28;20205;-69
2023/09/24 03:44:49;;;;;;;4.77;1.80;;;;;;;21.12;100.00;101225.59;2081427;28;20209;-69
2023/09/24 03:45:49;;;;;;;3.43;1.47;;;;;;;21.05;100.00;101221.16;2080962;28;20274;-69
2023/09/24 03:46:50;;;;;;;3.63;1.60;;;;;;;21.02;100.00;101213.69;2081906;28;20187;-69
2023/09/24 03:47:51;;;;;;;4.30;1.90;;;;;;;21.01;100.00;101211.34;2081221;28;20284;-69
2023/09/24 03:48:52;;;;;;;3.00;1.83;;;;;;;20.97;100.00;101208.72;2081380;28;20258;-69
2023/09/24 03:49:52;;;;;;;4.93;2.07;;;;;;;20.95;100.00;101210.50;2081058;28;20193;-69
2023/09/24 03:50:54;;;;;;;3.17;2.13;;;;;;;20.97;100.00;101213.59;2081277;28;20204;-69
2023/09/24 03:51:54;;;;;;;3.63;2.10;;;;;;;20.93;100.00;101213.03;2081046;28;20192;-69
2023/09/24 03:52:56;;;;;;;4.97;2.37;;;;;;;20.92;100.00;101212.25;2080635;28;20219;-69
2023/09/24 03:53:57;;;;;;;5.57;2.30;;;;;;;20.88;100.00;101214.44;2081130;28;20612;-69
2023/09/24 03:54:59;;;;;;;3.30;1.90;;;;;;;20.60;100.00;101168.19;2080489;28;20420;-69
2023/09/24 03:56:00;;;;;;;1.67;1.43;;;;;;;20.82;100.00;101207.19;2080768;28;20642;-69
2023/09/24 03:57:00;;;;;;;4.27;2.00;;;;;;;20.82;100.00;101210.03;2081319;28;20443;-69
2023/09/24 03:58:01;;;;;;;2.37;1.63;;;;;;;20.85;100.00;101212.63;2081301;28;20188;-69
2023/09/24 03:59:01;;;;;;;4.27;2.10;;;;;;;20.81;100.00;101211.25;2081138;28;20189;-69
2023/09/24 04:00:11;;;;;;;2.30;1.60;;;;;;;20.82;100.00;101222.03;2081136;28;20191;-69
2023/09/24 04:01:12;;;;;;;2.20;1.80;;;;;;;20.83;100.00;101223.59;2081485;28;20622;-69
2023/09/24 04:02:14;;;;;;;2.47;1.60;;;;;;;20.81;100.00;101225.34;2075677;28;20197;-69
2023/09/24 04:03:16;;;;;;;4.93;1.70;;;;;;;20.70;100.00;101205.47;2081406;28;20172;-69
2023/09/24 04:04:19;;;;;;;5.43;1.90;;;;;;;20.82;100.00;101215.66;2081101;28;20630;-69
2023/09/24 04:05:22;;;;;;;3.47;1.83;;;;;;;20.85;100.00;101220.28;2081747;28;20239;-69
2023/09/24 04:06:22;;;;;;;5.67;1.90;;;;;;;20.80;100.00;101213.31;2073392;28;20551;-69
2023/09/24 04:07:23;;;;;;;3.13;1.70;;;;;;;20.81;100.00;101212.03;2079851;28;20185;-69
2023/09/24 04:08:23;;;;;;;5.10;1.77;;;;;;;20.80;100.00;101210.50;2076986;28;20217;-69
2023/09/24 04:09:23;;;;;;;3.47;2.00;;;;;;;20.67;100.00;101207.22;2079451;28;20193;-69
2023/09/24 04:10:27;;;;;;;3.37;1.80;;;;;;;20.65;100.00;101220.22;2081009;28;20185;-69
2023/09/24 04:11:27;;;;;;;3.50;1.50;;;;;;;20.67;100.00;101220.53;2080984;28;20566;-69
2023/09/24 04:12:33;;;;;;;3.53;2.00;;;;;;;20.67;100.00;101223.34;2079109;28;20247;-69
2023/09/24 04:13:34;;;;;;;3.73;2.10;;;;;;;20.68;100.00;101225.66;2074381;28;20185;-69
2023/09/24 04:14:35;;;;;;;3.27;1.63;;;;;;;20.69;100.00;101226.44;2081140;28;20177;-69
2023/09/24 04:15:35;;;;;;;2.67;1.80;;;;;;;20.68;100.00;101230.53;2081524;28;20564;-69
2023/09/24 04:16:36;;;;;;;2.93;2.13;;;;;;;20.68;100.00;101225.66;2080521;28;20204;-69
2023/09/24 04:17:36;;;;;;;5.00;2.60;;;;;;;20.65;100.00;101226.66;2081293;28;20220;-69
2023/09/24 04:18:37;;;;;;;3.87;1.97;;;;;;;20.03;100.00;101124.72;2081059;28;20213;-69
2023/09/24 04:19:37;;;;;;;4.90;1.73;;;;;;;20.67;100.00;101221.28;2080625;28;20750;-69
2023/09/24 04:20:38;;;;;;;4.07;2.10;;;;;;;20.68;100.00;101224.91;2079850;28;20575;-69
2023/09/24 04:21:38;;;;;;;2.80;1.63;;;;;;;20.69;100.00;101226.44;2080768;28;20177;-69
2023/09/24 04:22:39;;;;;;;3.27;2.30;;;;;;;20.68;100.00;101224.91;2081077;28;20260;-69
2023/09/24 04:23:39;;;;;;;4.83;2.37;;;;;;;20.67;100.00;101226.16;2081618;28;20231;-69
2023/09/24 04:24:39;;;;;;;4.30;2.10;;;;;;;20.69;100.00;101230.03;2081114;28;20258;-69
2023/09/24 04:25:40;;;;;;;6.20;1.67;;;;;;;20.70;100.00;101225.97;2077372;28;20190;-69
2023/09/24 04:26:40;;;;;;;4.90;2.00;;;;;;;20.71;100.00;101233.13;2077039;28;20577;-69
2023/09/24 04:27:42;;;;;;;5.73;2.00;;;;;;;20.73;100.00;101241.09;2080912;28;20200;-69
2023/09/24 04:28:42;;;;;;;3.40;1.83;;;;;;;20.63;100.00;101223.53;2081190;28;20611;-69
2023/09/24 04:29:44;;;;;;;2.90;1.83;;;;;;;20.73;100.00;101238.28;2080988;28;20423;-70
2023/09/24 04:30:45;;;;;;;4.77;2.43;;;;;;;20.76;100.00;101232.44;2080839;28;20451;-69
2023/09/24 04:31:45;;;;;;;3.77;2.20;;;;;;;20.80;100.00;101249.16;2081448;28;20177;-69
2023/09/24 04:32:51;;;;;;;4.37;2.20;;;;;;;20.80;100.00;101233.03;2080261;28;20470;-69
2023/09/24 04:33:52;;;;;;;7.50;2.47;;;;;;;20.78;100.00;101229.91;2080499;28;20287;-70
2023/09/24 04:34:55;;;;;;;5.40;2.87;;;;;;;20.80;100.00;101238.66;2081169;28;20455;-70
2023/09/24 04:35:55;;;;;;;2.63;1.90;;;;;;;20.82;100.00;101233.31;2079965;28;20188;-69
2023/09/24 04:36:56;;;;;;;4.97;2.23;;;;;;;20.81;100.00;101228.94;2080934;28;20444;-70
2023/09/24 04:37:56;;;;;;;5.40;2.50;;;;;;;20.84;100.00;101238.47;2081128;28;20252;-69
2023/09/24 04:38:56;;;;;;;4.17;2.60;;;;;;;20.84;100.00;101244.09;2078972;28;20189;-69
2023/09/24 04:39:58;;;;;;;3.13;1.90;;;;;;;20.83;100.00;101243.31;2079545;28;20204;-69
2023/09/24 04:40:58;;;;;;;5.87;2.43;;;;;;;20.84;100.00;101232.84;2081085;28;20617;-70
2023/09/24 04:41:59;;;;;;;4.50;2.20;;;;;;;20.85;100.00;101245.66;2080518;28;20444;-70